Warnerville, NY (12187)

11:41 AM EDT on June 02, 2015 (GMT -0400)
Cobleskill Richmondville | | Change Station
CLOSE
Current Station
Personal Weather Station
Location: Richmondville, NY
Elevation: 965 ft
Nearby Weather Stations

Elev 965 ft 42.65 °N, 74.53 °W | Updated 0 second ago

Overcast
Overcast
54.0 °F
Feels Like 54.0 °F
N
0.0
Wind Variable Wind from WSW
Gusts 0.0 mph

Today
High -- | Low -- °F
--% Chance of Precip.
Yesterday
High -- | Low -- °F
Precip. -- in
5:22 AM 8:29 PM
Full, 100% visible
Pressure 30.19 in
Visibility 10.0 miles
Clouds Overcast 1700 ft
Dew Point 54 °F
Humidity 100%
Rainfall 0.01 in
Snow Depth Not available.
UV 3 out of 12
Pollen 5.70 out of 12
Air Quality Not available.
Flu Activity Sporadic
METAR KSCH 021445Z 03003KT 10SM OVC017 12/08 A3019

More Conditions Fewer Conditions

Pressure 30.19 in
Visibility 10.0 miles
Clouds Overcast 1700 ft
Dew Point 54 °F
Humidity 100%
Rainfall 0.01 in
Snow Depth Not available.
UV 3 out of 12
Pollen 5.70 out of 12
Air Quality Not available.
Flu Activity Sporadic
METAR KSCH 021445Z 03003KT 10SM OVC017 12/08 A3019

More Conditions Fewer Conditions

10-Day Weather Forecast

Almanac

Astronomy

Jun. 02, 2015 Rise Set
Actual Time
Civil Twilight
Nautical Twilight
Astronomical Twilight
Moon
Length of Visible Light
Length of Day
Tomorrow will be .
, % of the Moon is Illuminated

Today's Extremes

State Highs State Lows

Community

WunderPhotos

Upload Photos

1,825,966 photos uploaded!

WunderBlogs® & News

Nearby

Air Quality

  Air Quality AQ Index Pollutant
Not available.

Snow Depth

Station Depth Elevation

Earthquake Activity

City Distance Mag. Time & Date
Minimum magnitude displayed is 2.5.

Coastal Water Temperatures

Place Temperature

Stations

Nearby Weather Stations

Station Location Temp. Windchill Dew Point Humidity Wind Precip. Elev Updated Type